CIV weather

Chomley Seaplane Base
Chomley, Alaska, United States

Public forecast

Using degrees Fahrenheit for public forecast. Weather courtesy of forecast.io.

Closest aviation weather report (METAR) to Chomley Seaplane Base

Closest report is Ketchikan International Airport, 18.9 nm (35.0 km) ENE. Retrieved 2020/08/04 04:53 UTC (45 minutes ago):

PAKT 040453Z 13006KT 10SM BKN037 OVC047 14/13 A3014

Closest aviation forecast (TAF) to Chomley Seaplane Base

Closest forecast is Ketchikan International Airport, 18.9 nm (35.0 km) ENE. Retrieved 2020-08-04 00:36 UTC (5 hours ago):

TAF PAKT 032334Z 0400/0424 13007KT P6SM VCSH SCT025 OVC050 TEMPO 0400/0404 5SM -RA BR BKN025 FM041000 13015KT P6SM -RA OVC015 AMD NOT SKED